Glasgow, Montana
Current Conditions -  °F | °C
As of 3:53 PM on Wednesday 22 Oct 2014 (Local Time) from KGGW Reporting Station
Clear Clear  
Wind Chill: 17°   Ceiling: Unl
Heat Index: 17°   Visibility: 10mi
Dew Point: -1°   Wind: 16mph
Humidity: 30%   Direction: 270°W
Pressure: 29.84"   Gusts: NA
Location:  48.2°N, 106.64°W
Report Text: KGGW 222153Z AUTO 27014KT 10SM CLR 17/M01 A2984 RMK AO2 SLP107 T01721006
Loading
Personal Weather Stations






























Interactive Weather Map
Tropical Storm Tracking
New forecast layout! Learn more

10-Day Weather Forecast

Advertisements
Track Severe Weather on mobile